sensor_id;sensor_type;location;lat;lon;timestamp;pressure;altitude;pressure_sealevel;temperature;humidity
20043;BME280;10182;52.896;6.496;2024-03-08T00:02:45;102057.63;;;1.76;100.00
20043;BME280;10182;52.896;6.496;2024-03-08T00:07:48;102052.47;;;1.82;100.00
20043;BME280;10182;52.896;6.496;2024-03-08T00:12:50;102050.72;;;1.83;100.00
20043;BME280;10182;52.896;6.496;2024-03-08T00:17:53;102041.09;;;1.79;100.00
20043;BME280;10182;52.896;6.496;2024-03-08T00:22:56;102045.31;;;1.64;100.00
20043;BME280;10182;52.896;6.496;2024-03-08T00:27:58;102048.78;;;1.63;100.00
20043;BME280;10182;52.896;6.496;2024-03-08T00:33:00;102043.38;;;1.46;100.00
20043;BME280;10182;52.896;6.496;2024-03-08T00:38:03;102042.44;;;1.41;100.00
20043;BME280;10182;52.896;6.496;2024-03-08T00:43:05;102032.88;;;1.42;100.00
20043;BME280;10182;52.896;6.496;2024-03-08T00:48:07;102035.31;;;1.28;100.00
20043;BME280;10182;52.896;6.496;2024-03-08T00:53:10;102025.72;;;1.28;100.00
20043;BME280;10182;52.896;6.496;2024-03-08T00:58:12;102013.56;;;1.27;100.00
20043;BME280;10182;52.896;6.496;2024-03-08T01:03:14;102011.81;;;1.28;100.00
20043;BME280;10182;52.896;6.496;2024-03-08T01:08:17;102008.22;;;1.18;100.00
20043;BME280;10182;52.896;6.496;2024-03-08T01:13:19;101997.00;;;1.27;100.00
20043;BME280;10182;52.896;6.496;2024-03-08T01:18:21;101987.47;;;1.29;100.00
20043;BME280;10182;52.896;6.496;2024-03-08T01:23:25;101977.84;;;1.23;100.00
20043;BME280;10182;52.896;6.496;2024-03-08T01:28:26;101974.31;;;1.20;100.00
20043;BME280;10182;52.896;6.496;2024-03-08T01:33:28;101955.09;;;1.16;100.00
20043;BME280;10182;52.896;6.496;2024-03-08T01:38:32;101962.91;;;1.14;100.00
20043;BME280;10182;52.896;6.496;2024-03-08T01:43:34;101960.25;;;1.08;100.00
20043;BME280;10182;52.896;6.496;2024-03-08T01:48:36;101955.94;;;1.12;100.00
20043;BME280;10182;52.896;6.496;2024-03-08T01:53:40;101942.88;;;1.10;100.00
20043;BME280;10182;52.896;6.496;2024-03-08T01:58:42;101936.66;;;1.00;100.00
20043;BME280;10182;52.896;6.496;2024-03-08T02:03:44;101939.28;;;1.02;100.00
20043;BME280;10182;52.896;6.496;2024-03-08T02:08:48;101925.38;;;1.01;100.00
20043;BME280;10182;52.896;6.496;2024-03-08T02:13:50;101928.94;;;1.10;100.00
20043;BME280;10182;52.896;6.496;2024-03-08T02:18:52;101926.34;;;1.11;100.00
20043;BME280;10182;52.896;6.496;2024-03-08T02:23:55;101928.94;;;1.10;100.00
20043;BME280;10182;52.896;6.496;2024-03-08T02:28:57;101931.56;;;1.11;100.00
20043;BME280;10182;52.896;6.496;2024-03-08T02:33:59;101921.16;;;1.14;100.00
20043;BME280;10182;52.896;6.496;2024-03-08T02:39:03;101915.00;;;1.09;100.00
20043;BME280;10182;52.896;6.496;2024-03-08T02:44:05;101914.94;;;1.00;100.00
20043;BME280;10182;52.896;6.496;2024-03-08T02:49:08;101905.38;;;1.04;100.00
20043;BME280;10182;52.896;6.496;2024-03-08T02:54:11;101899.28;;;1.00;100.00
20043;BME280;10182;52.896;6.496;2024-03-08T02:59:13;101897.28;;;0.82;100.00
20043;BME280;10182;52.896;6.496;2024-03-08T03:04:15;101892.97;;;0.82;100.00
20043;BME280;10182;52.896;6.496;2024-03-08T03:09:18;101883.34;;;0.77;100.00
20043;BME280;10182;52.896;6.496;2024-03-08T03:14:28;101885.81;;;0.67;100.00
20043;BME280;10182;52.896;6.496;2024-03-08T03:19:29;101878.06;;;0.74;100.00
20043;BME280;10182;52.896;6.496;2024-03-08T03:24:34;101874.47;;;0.64;100.00
20043;BME280;10182;52.896;6.496;2024-03-08T03:29:39;101871.75;;;0.55;100.00
20043;BME280;10182;52.896;6.496;2024-03-08T03:34:42;101867.44;;;0.58;100.00
20043;BME280;10182;52.896;6.496;2024-03-08T03:39:45;101859.66;;;0.60;100.00
20043;BME280;10182;52.896;6.496;2024-03-08T03:44:49;101860.41;;;0.51;100.00
20043;BME280;10182;52.896;6.496;2024-03-08T03:49:52;101853.56;;;0.59;100.00
20043;BME280;10182;52.896;6.496;2024-03-08T03:54:55;101849.16;;;0.55;100.00
20043;BME280;10182;52.896;6.496;2024-03-08T03:59:58;101840.50;;;0.58;100.00
20043;BME280;10182;52.896;6.496;2024-03-08T04:05:00;101829.13;;;0.51;100.00
20043;BME280;10182;52.896;6.496;2024-03-08T04:10:05;101836.19;;;0.61;100.00
20043;BME280;10182;52.896;6.496;2024-03-08T04:15:08;101821.31;;;0.53;100.00
20043;BME280;10182;52.896;6.496;2024-03-08T04:20:11;101823.88;;;0.48;100.00
20043;BME280;10182;52.896;6.496;2024-03-08T04:25:16;101817.88;;;0.54;100.00
20043;BME280;10182;52.896;6.496;2024-03-08T04:30:18;101809.06;;;0.44;100.00
20043;BME280;10182;52.896;6.496;2024-03-08T04:35:21;101809.06;;;0.45;100.00
20043;BME280;10182;52.896;6.496;2024-03-08T04:40:24;101818.69;;;0.49;100.00
20043;BME280;10182;52.896;6.496;2024-03-08T04:45:26;101806.34;;;0.38;100.00
20043;BME280;10182;52.896;6.496;2024-03-08T04:50:28;101801.03;;;0.28;100.00
20043;BME280;10182;52.896;6.496;2024-03-08T04:55:31;101811.53;;;0.35;100.00
20043;BME280;10182;52.896;6.496;2024-03-08T05:00:33;101807.91;;;0.23;100.00
20043;BME280;10182;52.896;6.496;2024-03-08T05:05:35;101810.56;;;0.26;100.00
20043;BME280;10182;52.896;6.496;2024-03-08T05:10:38;101795.66;;;0.17;100.00
20043;BME280;10182;52.896;6.496;2024-03-08T05:15:40;101791.53;;;0.33;100.00
20043;BME280;10182;52.896;6.496;2024-03-08T05:20:42;101794.03;;;0.24;100.00
20043;BME280;10182;52.896;6.496;2024-03-08T05:25:46;101795.63;;;0.14;100.00
20043;BME280;10182;52.896;6.496;2024-03-08T05:30:48;101788.78;;;0.21;100.00
20043;BME280;10182;52.896;6.496;2024-03-08T05:35:50;101788.75;;;0.20;100.00
20043;BME280;10182;52.896;6.496;2024-03-08T05:40:53;101797.44;;;0.20;100.00
20043;BME280;10182;52.896;6.496;2024-03-08T05:45:55;101798.19;;;0.08;100.00
20043;BME280;10182;52.896;6.496;2024-03-08T05:50:57;101790.38;;;0.10;100.00
20043;BME280;10182;52.896;6.496;2024-03-08T05:56:00;101795.50;;;0.05;100.00
20043;BME280;10182;52.896;6.496;2024-03-08T06:01:03;101789.44;;;0.05;100.00
20043;BME280;10182;52.896;6.496;2024-03-08T06:06:08;101786.81;;;0.03;100.00
20043;BME280;10182;52.896;6.496;2024-03-08T06:11:11;101791.03;;;-0.07;100.00
20043;BME280;10182;52.896;6.496;2024-03-08T06:16:13;101785.06;;;0.02;100.00
20043;BME280;10182;52.896;6.496;2024-03-08T06:21:14;101787.50;;;-0.09;100.00
20043;BME280;10182;52.896;6.496;2024-03-08T06:26:18;101782.41;;;-0.01;100.00
20043;BME280;10182;52.896;6.496;2024-03-08T06:31:19;101782.47;;;0.05;100.00
20043;BME280;10182;52.896;6.496;2024-03-08T06:36:22;101778.09;;;0.01;100.00
20043;BME280;10182;52.896;6.496;2024-03-08T06:41:25;101780.03;;;0.17;100.00
20043;BME280;10182;52.896;6.496;2024-03-08T06:46:30;101774.81;;;0.16;100.00
20043;BME280;10182;52.896;6.496;2024-03-08T06:51:32;101771.41;;;0.22;100.00
20043;BME280;10182;52.896;6.496;2024-03-08T06:56:35;101771.53;;;0.31;100.00
20043;BME280;10182;52.896;6.496;2024-03-08T07:01:37;101768.22;;;0.47;100.00
20043;BME280;10182;52.896;6.496;2024-03-08T07:06:38;101777.91;;;0.56;100.00
20043;BME280;10182;52.896;6.496;2024-03-08T07:11:42;101769.19;;;0.54;100.00
20043;BME280;10182;52.896;6.496;2024-03-08T07:16:47;101764.94;;;0.64;100.00
20043;BME280;10182;52.896;6.496;2024-03-08T07:21:49;101772.91;;;0.78;100.00
20043;BME280;10182;52.896;6.496;2024-03-08T07:26:52;101770.50;;;0.98;100.00
20043;BME280;10182;52.896;6.496;2024-03-08T07:31:53;101768.72;;;0.92;100.00
20043;BME280;10182;52.896;6.496;2024-03-08T07:37:08;101759.09;;;0.85;100.00
20043;BME280;10182;52.896;6.496;2024-03-08T07:42:12;101752.28;;;1.03;100.00
20043;BME280;10182;52.896;6.496;2024-03-08T07:47:15;101751.50;;;1.11;100.00
20043;BME280;10182;52.896;6.496;2024-03-08T07:52:18;101733.38;;;1.31;100.00
20043;BME280;10182;52.896;6.496;2024-03-08T07:57:21;101737.81;;;1.45;100.00
20043;BME280;10182;52.896;6.496;2024-03-08T08:02:23;101727.41;;;1.51;100.00
20043;BME280;10182;52.896;6.496;2024-03-08T08:07:25;101730.94;;;1.56;100.00
20043;BME280;10182;52.896;6.496;2024-03-08T08:12:29;101719.66;;;1.59;100.00
20043;BME280;10182;52.896;6.496;2024-03-08T08:17:31;101714.50;;;1.73;100.00
20043;BME280;10182;52.896;6.496;2024-03-08T08:22:33;101705.00;;;1.96;100.00
20043;BME280;10182;52.896;6.496;2024-03-08T08:27:36;101706.81;;;2.07;100.00
20043;BME280;10182;52.896;6.496;2024-03-08T08:32:38;101700.69;;;2.08;100.00
20043;BME280;10182;52.896;6.496;2024-03-08T08:37:40;101695.56;;;2.32;100.00
20043;BME280;10182;52.896;6.496;2024-03-08T08:42:43;101679.03;;;2.46;100.00
20043;BME280;10182;52.896;6.496;2024-03-08T08:47:46;101683.38;;;2.50;100.00
20043;BME280;10182;52.896;6.496;2024-03-08T08:52:48;101679.06;;;2.61;100.00
20043;BME280;10182;52.896;6.496;2024-03-08T08:57:51;101667.75;;;2.88;100.00
20043;BME280;10182;52.896;6.496;2024-03-08T09:02:53;101655.50;;;2.83;100.00
20043;BME280;10182;52.896;6.496;2024-03-08T09:07:58;101648.53;;;2.85;100.00
20043;BME280;10182;52.896;6.496;2024-03-08T09:13:02;101640.66;;;3.08;100.00
20043;BME280;10182;52.896;6.496;2024-03-08T09:18:05;101629.31;;;3.21;100.00
20043;BME280;10182;52.896;6.496;2024-03-08T09:23:07;101627.56;;;3.10;100.00
20043;BME280;10182;52.896;6.496;2024-03-08T09:28:11;101625.78;;;3.36;100.00
20043;BME280;10182;52.896;6.496;2024-03-08T09:33:13;101619.63;;;3.47;100.00
20043;BME280;10182;52.896;6.496;2024-03-08T09:38:19;101609.97;;;3.58;100.00
20043;BME280;10182;52.896;6.496;2024-03-08T09:43:23;101610.00;;;3.60;100.00
20043;BME280;10182;52.896;6.496;2024-03-08T09:48:26;101607.31;;;3.67;100.00
20043;BME280;10182;52.896;6.496;2024-03-08T09:53:29;101587.22;;;3.72;100.00
20043;BME280;10182;52.896;6.496;2024-03-08T09:58:33;101573.13;;;3.95;100.00
20043;BME280;10182;52.896;6.496;2024-03-08T10:03:57;101566.91;;;4.12;100.00
20043;BME280;10182;52.896;6.496;2024-03-08T10:08:59;101575.69;;;4.06;100.00
20043;BME280;10182;52.896;6.496;2024-03-08T10:14:03;101561.69;;;4.07;100.00
20043;BME280;10182;52.896;6.496;2024-03-08T10:19:08;101558.94;;;4.26;100.00
20043;BME280;10182;52.896;6.496;2024-03-08T10:24:13;101544.75;;;4.51;100.00
20043;BME280;10182;52.896;6.496;2024-03-08T10:29:16;101535.06;;;4.58;100.00
20043;BME280;10182;52.896;6.496;2024-03-08T10:34:20;101524.47;;;4.67;100.00
20043;BME280;10182;52.896;6.496;2024-03-08T10:39:24;101529.63;;;4.77;100.00
20043;BME280;10182;52.896;6.496;2024-03-08T10:44:40;101514.69;;;4.83;100.00
20043;BME280;10182;52.896;6.496;2024-03-08T10:49:51;101510.25;;;4.90;100.00
20043;BME280;10182;52.896;6.496;2024-03-08T10:54:54;101509.34;;;4.93;100.00
20043;BME280;10182;52.896;6.496;2024-03-08T10:59:59;101497.06;;;4.96;100.00
20043;BME280;10182;52.896;6.496;2024-03-08T11:05:02;101489.97;;;5.04;100.00
20043;BME280;10182;52.896;6.496;2024-03-08T11:10:05;101493.38;;;5.09;100.00
20043;BME280;10182;52.896;6.496;2024-03-08T11:15:13;101485.34;;;5.25;100.00
20043;BME280;10182;52.896;6.496;2024-03-08T11:20:15;101480.72;;;5.41;100.00
20043;BME280;10182;52.896;6.496;2024-03-08T11:25:32;101465.69;;;5.54;100.00
20043;BME280;10182;52.896;6.496;2024-03-08T11:30:38;101463.63;;;5.74;100.00
20043;BME280;10182;52.896;6.496;2024-03-08T11:35:41;101449.41;;;5.86;100.00
20043;BME280;10182;52.896;6.496;2024-03-08T11:40:46;101443.94;;;6.02;100.00
20043;BME280;10182;52.896;6.496;2024-03-08T11:46:07;101443.13;;;5.98;100.00
20043;BME280;10182;52.896;6.496;2024-03-08T11:51:11;101442.00;;;6.13;100.00
20043;BME280;10182;52.896;6.496;2024-03-08T11:56:14;101424.13;;;6.32;100.00
20043;BME280;10182;52.896;6.496;2024-03-08T12:01:17;101421.47;;;6.34;100.00
20043;BME280;10182;52.896;6.496;2024-03-08T12:06:19;101417.81;;;6.42;100.00
20043;BME280;10182;52.896;6.496;2024-03-08T12:11:21;101404.38;;;6.56;100.00
20043;BME280;10182;52.896;6.496;2024-03-08T12:16:25;101391.91;;;6.66;100.00
20043;BME280;10182;52.896;6.496;2024-03-08T12:21:28;101392.34;;;6.87;100.00
20043;BME280;10182;52.896;6.496;2024-03-08T12:26:29;101375.84;;;6.78;100.00
20043;BME280;10182;52.896;6.496;2024-03-08T12:31:34;101374.75;;;6.90;100.00
20043;BME280;10182;52.896;6.496;2024-03-08T12:36:37;101370.16;;;6.99;100.00
20043;BME280;10182;52.896;6.496;2024-03-08T12:41:39;101358.75;;;6.98;100.00
20043;BME280;10182;52.896;6.496;2024-03-08T12:46:44;101333.84;;;7.13;100.00
20043;BME280;10182;52.896;6.496;2024-03-08T12:51:46;101324.03;;;7.20;100.00
20043;BME280;10182;52.896;6.496;2024-03-08T12:56:48;101308.94;;;7.26;100.00
20043;BME280;10182;52.896;6.496;2024-03-08T13:01:51;101303.66;;;7.26;100.00
20043;BME280;10182;52.896;6.496;2024-03-08T13:06:54;101298.25;;;7.33;100.00
20043;BME280;10182;52.896;6.496;2024-03-08T13:11:55;101293.69;;;7.39;100.00
20043;BME280;10182;52.896;6.496;2024-03-08T13:17:00;101281.13;;;7.51;100.00
20043;BME280;10182;52.896;6.496;2024-03-08T13:22:04;101276.03;;;7.43;100.00
20043;BME280;10182;52.896;6.496;2024-03-08T13:27:07;101255.63;;;7.51;100.00
20043;BME280;10182;52.896;6.496;2024-03-08T13:32:21;101249.16;;;7.63;100.00
20043;BME280;10182;52.896;6.496;2024-03-08T13:37:23;101250.16;;;7.59;100.00
20043;BME280;10182;52.896;6.496;2024-03-08T13:42:25;101239.38;;;7.67;100.00
20043;BME280;10182;52.896;6.496;2024-03-08T13:47:29;101231.38;;;7.71;100.00
20043;BME280;10182;52.896;6.496;2024-03-08T13:52:31;101224.88;;;7.83;100.00
20043;BME280;10182;52.896;6.496;2024-03-08T13:57:34;101216.66;;;7.95;100.00
20043;BME280;10182;52.896;6.496;2024-03-08T14:02:38;101214.78;;;7.99;100.00
20043;BME280;10182;52.896;6.496;2024-03-08T14:07:41;101193.13;;;7.88;100.00
20043;BME280;10182;52.896;6.496;2024-03-08T14:12:44;101186.94;;;7.89;100.00
20043;BME280;10182;52.896;6.496;2024-03-08T14:17:54;101163.94;;;7.92;100.00
20043;BME280;10182;52.896;6.496;2024-03-08T14:22:55;101171.81;;;7.95;100.00
20043;BME280;10182;52.896;6.496;2024-03-08T14:27:57;101158.69;;;7.92;100.00
20043;BME280;10182;52.896;6.496;2024-03-08T14:33:06;101142.09;;;7.89;100.00
20043;BME280;10182;52.896;6.496;2024-03-08T14:38:09;101139.25;;;7.95;100.00
20043;BME280;10182;52.896;6.496;2024-03-08T14:43:11;101136.72;;;7.92;100.00
20043;BME280;10182;52.896;6.496;2024-03-08T14:48:15;101125.16;;;7.96;100.00
20043;BME280;10182;52.896;6.496;2024-03-08T14:53:17;101118.94;;;7.99;100.00
20043;BME280;10182;52.896;6.496;2024-03-08T14:58:19;101099.78;;;7.92;100.00
20043;BME280;10182;52.896;6.496;2024-03-08T15:03:23;101111.25;;;7.91;100.00
20043;BME280;10182;52.896;6.496;2024-03-08T15:08:27;101100.00;;;7.84;100.00
20043;BME280;10182;52.896;6.496;2024-03-08T15:13:29;101098.09;;;7.89;100.00
20043;BME280;10182;52.896;6.496;2024-03-08T15:18:40;101083.34;;;7.84;100.00
20043;BME280;10182;52.896;6.496;2024-03-08T15:23:46;101100.28;;;7.75;100.00
20043;BME280;10182;52.896;6.496;2024-03-08T15:28:52;101088.22;;;7.66;100.00
20043;BME280;10182;52.896;6.496;2024-03-08T15:33:56;101088.13;;;7.69;100.00
20043;BME280;10182;52.896;6.496;2024-03-08T15:39:01;101074.31;;;7.61;100.00
20043;BME280;10182;52.896;6.496;2024-03-08T15:44:03;101063.00;;;7.57;100.00
20043;BME280;10182;52.896;6.496;2024-03-08T15:49:06;101056.91;;;7.55;100.00
20043;BME280;10182;52.896;6.496;2024-03-08T15:54:09;101041.13;;;7.54;100.00
20043;BME280;10182;52.896;6.496;2024-03-08T15:59:10;101031.59;;;7.50;100.00
20043;BME280;10182;52.896;6.496;2024-03-08T16:04:14;101024.63;;;7.47;100.00
20043;BME280;10182;52.896;6.496;2024-03-08T16:09:16;101033.78;;;7.34;100.00
20043;BME280;10182;52.896;6.496;2024-03-08T16:14:17;101027.38;;;7.44;100.00
20043;BME280;10182;52.896;6.496;2024-03-08T16:19:22;101029.53;;;7.29;100.00
20043;BME280;10182;52.896;6.496;2024-03-08T16:24:24;101022.44;;;7.32;100.00
20043;BME280;10182;52.896;6.496;2024-03-08T16:29:27;101018.53;;;7.15;100.00
20043;BME280;10182;52.896;6.496;2024-03-08T16:34:30;101009.56;;;7.21;100.00
20043;BME280;10182;52.896;6.496;2024-03-08T16:39:35;101025.13;;;6.99;100.00
20043;BME280;10182;52.896;6.496;2024-03-08T16:44:36;101009.22;;;7.02;100.00
20043;BME280;10182;52.896;6.496;2024-03-08T16:49:42;101008.38;;;7.00;100.00
20043;BME280;10182;52.896;6.496;2024-03-08T16:54:44;100998.94;;;6.92;100.00
20043;BME280;10182;52.896;6.496;2024-03-08T16:59:46;100996.53;;;6.83;100.00
20043;BME280;10182;52.896;6.496;2024-03-08T17:04:49;101006.97;;;6.88;100.00
20043;BME280;10182;52.896;6.496;2024-03-08T17:09:51;101011.41;;;6.86;100.00
20043;BME280;10182;52.896;6.496;2024-03-08T17:14:53;101008.28;;;6.71;100.00
20043;BME280;10182;52.896;6.496;2024-03-08T17:19:56;100999.25;;;6.47;100.00
20043;BME280;10182;52.896;6.496;2024-03-08T17:24:58;100987.66;;;6.54;100.00
20043;BME280;10182;52.896;6.496;2024-03-08T17:30:00;100989.59;;;6.48;100.00
20043;BME280;10182;52.896;6.496;2024-03-08T17:35:08;100985.25;;;6.45;100.00
20043;BME280;10182;52.896;6.496;2024-03-08T17:40:13;100980.88;;;6.46;100.00
20043;BME280;10182;52.896;6.496;2024-03-08T17:45:18;100980.34;;;6.31;100.00
20043;BME280;10182;52.896;6.496;2024-03-08T17:50:22;100977.00;;;6.24;100.00
20043;BME280;10182;52.896;6.496;2024-03-08T17:55:24;100980.81;;;6.13;100.00
20043;BME280;10182;52.896;6.496;2024-03-08T18:00:26;100980.19;;;6.03;100.00
20043;BME280;10182;52.896;6.496;2024-03-08T18:05:31;100972.34;;;6.00;100.00
20043;BME280;10182;52.896;6.496;2024-03-08T18:10:36;100973.22;;;6.00;100.00
20043;BME280;10182;52.896;6.496;2024-03-08T18:15:38;100971.44;;;6.01;100.00
20043;BME280;10182;52.896;6.496;2024-03-08T18:20:42;100963.69;;;5.95;100.00
20043;BME280;10182;52.896;6.496;2024-03-08T18:25:46;100967.47;;;5.83;100.00
20043;BME280;10182;52.896;6.496;2024-03-08T18:30:48;100956.06;;;5.84;100.00
20043;BME280;10182;52.896;6.496;2024-03-08T18:35:53;100947.78;;;5.62;100.00
20043;BME280;10182;52.896;6.496;2024-03-08T18:40:55;100939.72;;;5.69;100.00
20043;BME280;10182;52.896;6.496;2024-03-08T18:45:58;100941.59;;;5.64;100.00
20043;BME280;10182;52.896;6.496;2024-03-08T18:51:01;100937.31;;;5.60;100.00
20043;BME280;10182;52.896;6.496;2024-03-08T18:56:03;100935.53;;;5.62;100.00
20043;BME280;10182;52.896;6.496;2024-03-08T19:01:05;100940.81;;;5.59;100.00
20043;BME280;10182;52.896;6.496;2024-03-08T19:06:09;100933.03;;;5.56;100.00
20043;BME280;10182;52.896;6.496;2024-03-08T19:11:10;100935.75;;;5.51;100.00
20043;BME280;10182;52.896;6.496;2024-03-08T19:16:14;100927.06;;;5.48;100.00
20043;BME280;10182;52.896;6.496;2024-03-08T19:21:19;100930.88;;;5.36;100.00
20043;BME280;10182;52.896;6.496;2024-03-08T19:26:21;100924.59;;;5.41;100.00
20043;BME280;10182;52.896;6.496;2024-03-08T19:31:24;100922.09;;;5.35;100.00
20043;BME280;10182;52.896;6.496;2024-03-08T19:36:27;100920.41;;;5.33;100.00
20043;BME280;10182;52.896;6.496;2024-03-08T19:41:29;100909.72;;;5.40;100.00
20043;BME280;10182;52.896;6.496;2024-03-08T19:46:32;100906.41;;;5.32;100.00
20043;BME280;10182;52.896;6.496;2024-03-08T19:51:42;100902.94;;;5.30;100.00
20043;BME280;10182;52.896;6.496;2024-03-08T19:56:46;100910.13;;;5.22;100.00
20043;BME280;10182;52.896;6.496;2024-03-08T20:01:48;100903.97;;;5.23;100.00
20043;BME280;10182;52.896;6.496;2024-03-08T20:06:53;100899.66;;;5.20;100.00
20043;BME280;10182;52.896;6.496;2024-03-08T20:11:55;100902.41;;;5.16;100.00
20043;BME280;10182;52.896;6.496;2024-03-08T20:16:57;100892.94;;;5.07;100.00
20043;BME280;10182;52.896;6.496;2024-03-08T20:22:00;100895.56;;;5.08;100.00
20043;BME280;10182;52.896;6.496;2024-03-08T20:27:02;100876.41;;;5.03;100.00
20043;BME280;10182;52.896;6.496;2024-03-08T20:32:04;100887.69;;;5.08;100.00
20043;BME280;10182;52.896;6.496;2024-03-08T20:37:07;100885.06;;;5.07;100.00
20043;BME280;10182;52.896;6.496;2024-03-08T20:42:09;100878.31;;;4.95;100.00
20043;BME280;10182;52.896;6.496;2024-03-08T20:47:11;100870.38;;;4.98;100.00
20043;BME280;10182;52.896;6.496;2024-03-08T20:52:14;100865.28;;;4.90;100.00
20043;BME280;10182;52.896;6.496;2024-03-08T20:57:16;100858.59;;;4.75;100.00
20043;BME280;10182;52.896;6.496;2024-03-08T21:02:18;100854.06;;;4.82;100.00
20043;BME280;10182;52.896;6.496;2024-03-08T21:07:21;100853.41;;;4.72;100.00
20043;BME280;10182;52.896;6.496;2024-03-08T21:12:23;100843.94;;;4.65;100.00
20043;BME280;10182;52.896;6.496;2024-03-08T21:17:25;100841.38;;;4.62;100.00
20043;BME280;10182;52.896;6.496;2024-03-08T21:22:28;100825.72;;;4.57;100.00
20043;BME280;10182;52.896;6.496;2024-03-08T21:27:30;100832.78;;;4.55;100.00
20043;BME280;10182;52.896;6.496;2024-03-08T21:32:32;100832.75;;;4.57;100.00
20043;BME280;10182;52.896;6.496;2024-03-08T21:37:35;100817.91;;;4.54;100.00
20043;BME280;10182;52.896;6.496;2024-03-08T21:42:37;100817.25;;;4.45;100.00
20043;BME280;10182;52.896;6.496;2024-03-08T21:47:40;100817.22;;;4.46;100.00
20043;BME280;10182;52.896;6.496;2024-03-08T21:52:44;100811.81;;;4.52;100.00
20043;BME280;10182;52.896;6.496;2024-03-08T21:57:46;100804.94;;;4.47;100.00
20043;BME280;10182;52.896;6.496;2024-03-08T22:02:48;100808.50;;;4.44;100.00
20043;BME280;10182;52.896;6.496;2024-03-08T22:07:52;100802.56;;;4.34;100.00
20043;BME280;10182;52.896;6.496;2024-03-08T22:12:55;100800.13;;;4.25;100.00
20043;BME280;10182;52.896;6.496;2024-03-08T22:17:57;100805.44;;;4.22;100.00
20043;BME280;10182;52.896;6.496;2024-03-08T22:23:00;100799.25;;;4.26;100.00
20043;BME280;10182;52.896;6.496;2024-03-08T22:28:02;100800.22;;;4.20;100.00
20043;BME280;10182;52.896;6.496;2024-03-08T22:33:04;100799.19;;;4.29;100.00
20043;BME280;10182;52.896;6.496;2024-03-08T22:38:10;100794.88;;;4.25;100.00
20043;BME280;10182;52.896;6.496;2024-03-08T22:43:12;100801.13;;;4.19;100.00
20043;BME280;10182;52.896;6.496;2024-03-08T22:48:14;100802.03;;;4.17;100.00
20043;BME280;10182;52.896;6.496;2024-03-08T22:53:17;100797.63;;;4.19;100.00
20043;BME280;10182;52.896;6.496;2024-03-08T22:58:19;100802.00;;;4.20;100.00
20043;BME280;10182;52.896;6.496;2024-03-08T23:03:21;100789.88;;;4.13;100.00
20043;BME280;10182;52.896;6.496;2024-03-08T23:08:24;100790.84;;;4.09;100.00
20043;BME280;10182;52.896;6.496;2024-03-08T23:13:30;100790.06;;;4.03;100.00
20043;BME280;10182;52.896;6.496;2024-03-08T23:18:34;100785.81;;;3.98;100.00
20043;BME280;10182;52.896;6.496;2024-03-08T23:23:37;100793.97;;;3.81;100.00
20043;BME280;10182;52.896;6.496;2024-03-08T23:28:39;100787.84;;;3.82;100.00
20043;BME280;10182;52.896;6.496;2024-03-08T23:33:42;100770.38;;;3.81;100.00
20043;BME280;10182;52.896;6.496;2024-03-08T23:38:48;100768.81;;;3.72;100.00
20043;BME280;10182;52.896;6.496;2024-03-08T23:43:55;100756.56;;;3.72;100.00
20043;BME280;10182;52.896;6.496;2024-03-08T23:48:57;100761.94;;;3.66;100.00
20043;BME280;10182;52.896;6.496;2024-03-08T23:54:00;100770.84;;;3.54;100.00
20043;BME280;10182;52.896;6.496;2024-03-08T23:59:04;100755.19;;;3.51;100.00
